createdAt,value
2017-05-16T00:00:33.771Z,77.42
2017-05-16T00:01:14.681Z,77.7
2017-05-16T00:01:55.571Z,78.76
2017-05-16T00:02:36.466Z,79.24
2017-05-16T00:03:17.358Z,79.81
2017-05-16T00:03:58.240Z,79.62
2017-05-16T00:04:39.129Z,79.77
2017-05-16T00:05:20.023Z,79
2017-05-16T00:06:00.913Z,79.33
2017-05-16T00:06:41.804Z,77.9
2017-05-16T00:07:22.697Z,77.8
2017-05-16T00:08:03.584Z,77.33
2017-05-16T00:08:44.478Z,77.04
2017-05-16T00:09:25.370Z,77.42
2017-05-16T00:10:06.268Z,76.84
2017-05-16T00:10:47.156Z,77.23
2017-05-16T00:11:28.051Z,76.75
2017-05-16T00:12:08.948Z,76.56
2017-05-16T00:12:49.842Z,76.84
2017-05-16T00:13:30.740Z,76.37
2017-05-16T00:14:11.630Z,76.52
2017-05-16T00:14:52.531Z,79.1
2017-05-16T00:15:33.410Z,79.2
2017-05-16T00:16:14.302Z,78.63
2017-05-16T00:16:55.196Z,78.63
2017-05-16T00:17:36.085Z,78.14
2017-05-16T00:18:16.981Z,78.47
2017-05-16T00:18:57.883Z,78.86
2017-05-16T00:19:38.782Z,78.34
2017-05-16T00:20:19.678Z,79.1
2017-05-16T00:21:00.564Z,79.29
2017-05-16T00:21:41.459Z,79.39
2017-05-16T00:22:22.350Z,78.43
2017-05-16T00:23:03.234Z,78.63
2017-05-16T00:23:44.125Z,77.86
2017-05-16T00:24:25.009Z,77.19
2017-05-16T00:25:05.907Z,78.05
2017-05-16T00:25:46.800Z,77.76
2017-05-16T00:26:27.691Z,79.1
2017-05-16T00:27:08.565Z,80.35
2017-05-16T00:27:49.444Z,79.39
2017-05-16T00:28:30.335Z,79.68
2017-05-16T00:29:11.229Z,79.49
2017-05-16T00:29:52.103Z,79.2
2017-05-16T00:30:32.982Z,79
2017-05-16T00:31:13.856Z,79.29
2017-05-16T00:31:54.747Z,79.49
2017-05-16T00:32:35.625Z,79.96
2017-05-16T00:33:16.546Z,79.68
2017-05-16T00:33:57.432Z,79.77
2017-05-16T00:34:38.318Z,81.88
2017-05-16T00:35:19.194Z,82.17
2017-05-16T00:36:00.090Z,82.17
2017-05-16T00:36:40.981Z,82.07
2017-05-16T00:37:21.874Z,82.93
2017-05-16T00:38:02.765Z,82.64
2017-05-16T00:38:43.646Z,81.88
2017-05-16T00:39:24.530Z,81.3
2017-05-16T00:40:05.462Z,81.49
2017-05-16T00:40:46.347Z,82.98
2017-05-16T00:41:27.234Z,83.84
2017-05-16T00:42:08.124Z,83.94
2017-05-16T00:42:49.023Z,83.65
2017-05-16T00:43:29.905Z,82.79
2017-05-16T00:44:10.791Z,82.79
2017-05-16T00:44:51.680Z,82.79
2017-05-16T00:45:32.559Z,82.12
2017-05-16T00:46:13.470Z,82.41
2017-05-16T00:46:54.338Z,82.98
2017-05-16T00:47:35.233Z,82.22
2017-05-16T00:48:16.123Z,81.45
2017-05-16T00:48:57.010Z,80.98
2017-05-16T00:49:37.887Z,80.5
2017-05-16T00:50:18.757Z,80.88
2017-05-16T00:50:59.652Z,82.31
2017-05-16T00:51:40.539Z,82.03
2017-05-16T00:52:21.427Z,81.74
2017-05-16T00:53:02.325Z,80.98
2017-05-16T00:53:43.217Z,81.07
2017-05-16T00:54:24.112Z,82.12
2017-05-16T00:55:05.006Z,83.27
2017-05-16T00:55:45.896Z,84.32
2017-05-16T00:56:26.786Z,84.7
2017-05-16T00:57:07.682Z,84.99
2017-05-16T00:57:48.602Z,85.09
2017-05-16T00:58:29.475Z,84.8
2017-05-16T00:59:10.349Z,85.57
2017-05-16T00:59:51.243Z,86.52
2017-05-16T01:00:32.125Z,86.8
2017-05-16T01:01:13.028Z,86.86
2017-05-16T01:01:53.935Z,87.29
2017-05-16T01:02:34.835Z,87.43
2017-05-16T01:03:15.751Z,87.91
2017-05-16T01:03:56.649Z,87.82
2017-05-16T01:04:37.551Z,88.1
2017-05-16T01:05:18.434Z,87.72
2017-05-16T01:05:59.319Z,87.53
2017-05-16T01:06:40.228Z,88.68
2017-05-16T01:07:21.112Z,88.77
2017-05-16T01:08:01.990Z,88.87
2017-05-16T01:08:42.878Z,88.77
2017-05-16T01:09:23.782Z,88.87
2017-05-16T01:10:04.669Z,88.68
2017-05-16T01:10:45.559Z,89.15
2017-05-16T01:11:26.460Z,89.44
2017-05-16T01:12:07.383Z,88.96
2017-05-16T01:12:48.276Z,89.73
2017-05-16T01:13:29.160Z,89.53
2017-05-16T01:14:10.046Z,89.92
2017-05-16T01:14:50.935Z,89.82
2017-05-16T01:15:31.824Z,90.11
2017-05-16T01:16:12.721Z,90.01
2017-05-16T01:16:53.608Z,89.92
2017-05-16T01:17:34.499Z,90.01
2017-05-16T01:18:15.401Z,90.01
2017-05-16T01:18:56.301Z,90.49
2017-05-16T01:19:37.241Z,90.49
2017-05-16T01:20:18.105Z,90.39
2017-05-16T01:20:59.006Z,90.78
2017-05-16T01:21:39.887Z,90.59
2017-05-16T01:22:20.782Z,90.49
2017-05-16T01:23:01.716Z,90.88
2017-05-16T01:23:42.608Z,90.88
2017-05-16T01:24:23.498Z,90.59
2017-05-16T01:25:04.409Z,90.97
2017-05-16T01:25:45.275Z,91.74
2017-05-16T01:26:26.168Z,91.59
2017-05-16T01:27:07.059Z,90.64
2017-05-16T01:27:47.957Z,91.5
2017-05-16T01:28:28.839Z,91.21
2017-05-16T01:29:09.742Z,91.3
2017-05-16T01:29:50.644Z,91.88
2017-05-16T01:30:31.541Z,91.78
2017-05-16T01:31:12.453Z,91.5
2017-05-16T01:31:53.396Z,91.59
2017-05-16T01:32:34.287Z,91.78
2017-05-16T01:33:15.166Z,91.88
2017-05-16T01:33:56.045Z,91.3
2017-05-16T01:34:36.949Z,91.5
2017-05-16T01:35:17.839Z,92.07
2017-05-16T01:35:58.730Z,92.07
2017-05-16T01:36:39.625Z,91.69
2017-05-16T01:37:20.518Z,91.88
2017-05-16T01:38:01.410Z,91.88
2017-05-16T01:38:42.299Z,92.16
2017-05-16T01:39:23.203Z,92.07
2017-05-16T01:40:04.081Z,92.45
2017-05-16T01:40:44.982Z,92.64
2017-05-16T01:41:25.869Z,92.55
2017-05-16T01:42:06.764Z,92.93
2017-05-16T01:42:47.698Z,92.26
2017-05-16T01:43:28.539Z,92.36
2017-05-16T01:44:09.417Z,92.07
2017-05-16T01:44:50.314Z,91.74
2017-05-16T01:45:31.197Z,92.26
2017-05-16T01:46:12.078Z,92.07
2017-05-16T01:46:52.969Z,91.97
2017-05-16T01:47:33.853Z,92.07
2017-05-16T01:48:14.734Z,92.07
2017-05-16T01:48:55.629Z,91.97
2017-05-16T01:49:36.522Z,92.16
2017-05-16T01:50:17.408Z,91.74
2017-05-16T01:50:58.341Z,92.11
2017-05-16T01:51:39.227Z,91.74
2017-05-16T01:52:20.111Z,91.54
2017-05-16T01:53:01.016Z,91.25
2017-05-16T01:53:41.895Z,91.25
2017-05-16T01:54:22.783Z,91.45
2017-05-16T01:55:03.672Z,91.25
2017-05-16T01:55:44.559Z,91.35
2017-05-16T01:56:25.462Z,92.11
2017-05-16T01:57:06.344Z,91.16
2017-05-16T01:58:28.160Z,91.35
2017-05-16T01:59:09.055Z,90.78
2017-05-16T01:59:49.954Z,90.97
2017-05-16T02:00:30.854Z,91.35
2017-05-16T02:01:11.740Z,91.83
2017-05-16T02:01:52.638Z,91.83
2017-05-16T02:02:33.521Z,91.54
2017-05-16T02:03:14.404Z,91.45
2017-05-16T02:03:55.304Z,91.83
2017-05-16T02:04:36.204Z,91.74
2017-05-16T02:05:17.099Z,92.3
2017-05-16T02:05:57.973Z,91.74
2017-05-16T02:06:38.868Z,92.02
2017-05-16T02:07:19.759Z,91.74
2017-05-16T02:08:00.666Z,91.83
2017-05-16T02:08:41.553Z,91.64
2017-05-16T02:09:22.442Z,91.74
2017-05-16T02:10:03.326Z,92.02
2017-05-16T02:10:44.222Z,91.83
2017-05-16T02:11:25.107Z,91.74
2017-05-16T02:12:05.997Z,92.02
2017-05-16T02:12:46.891Z,91.45
2017-05-16T02:13:27.781Z,92.3
2017-05-16T02:14:08.676Z,92.3
2017-05-16T02:14:49.573Z,92.11
2017-05-16T02:15:30.457Z,91.88
2017-05-16T02:16:11.345Z,93.12
2017-05-16T02:16:52.234Z,92.74
2017-05-16T02:17:33.116Z,93.02
2017-05-16T02:18:14.014Z,92.79
2017-05-16T02:18:54.903Z,92.93
2017-05-16T02:19:35.794Z,92.93
2017-05-16T02:20:16.689Z,93.41
2017-05-16T02:20:57.586Z,93.21
2017-05-16T02:21:38.475Z,93.21
2017-05-16T02:22:19.363Z,93.41
2017-05-16T02:23:00.245Z,93.21
2017-05-16T02:23:41.155Z,93.21
2017-05-16T02:24:22.037Z,93.6
2017-05-16T02:25:02.933Z,93.88
2017-05-16T02:25:43.856Z,93.7
2017-05-16T02:26:24.760Z,93.79
2017-05-16T02:27:05.685Z,93.7
2017-05-16T02:27:46.622Z,94.55
2017-05-16T02:28:27.566Z,94.46
2017-05-16T02:29:08.463Z,93.79
2017-05-16T02:29:49.391Z,93.88
2017-05-16T02:30:30.235Z,93.5
2017-05-16T02:31:11.122Z,93.79
2017-05-16T02:31:52.003Z,93.88
2017-05-16T02:32:32.887Z,94.36
2017-05-16T02:33:13.792Z,93.79
2017-05-16T02:33:54.672Z,93.7
2017-05-16T02:34:35.590Z,93.88
2017-05-16T02:35:16.475Z,93.26
2017-05-16T02:35:57.351Z,93.7
2017-05-16T02:36:38.239Z,93.6
2017-05-16T02:37:19.136Z,93.6
2017-05-16T02:38:00.021Z,93.7
2017-05-16T02:38:40.917Z,94.07
2017-05-16T02:39:21.814Z,93.88
2017-05-16T02:40:02.694Z,93.5
2017-05-16T02:40:43.578Z,93.7
2017-05-16T02:41:24.479Z,93.79
2017-05-16T02:42:05.365Z,93.88
2017-05-16T02:42:46.287Z,93.98
2017-05-16T02:43:27.173Z,93.5
2017-05-16T02:44:08.048Z,93.88
2017-05-16T02:44:48.941Z,93.36
2017-05-16T02:45:29.835Z,93.26
2017-05-16T02:46:10.729Z,93.55
2017-05-16T02:46:51.623Z,93.02
2017-05-16T02:47:32.514Z,93.79
2017-05-16T02:48:13.398Z,93.88
2017-05-16T02:48:54.321Z,93.7
2017-05-16T02:49:35.201Z,93.26
2017-05-16T02:50:16.093Z,93.55
2017-05-16T02:50:56.995Z,93.6
2017-05-16T02:51:37.892Z,93.26
2017-05-16T02:52:18.782Z,92.5
2017-05-16T02:52:59.704Z,92.79
2017-05-16T02:53:40.565Z,92.3
2017-05-16T02:54:21.463Z,92.11
2017-05-16T02:55:02.383Z,92.59
2017-05-16T02:55:43.283Z,93.07
2017-05-16T02:56:24.219Z,93.07
2017-05-16T02:57:05.116Z,92.59
2017-05-16T02:57:46.029Z,93.26
2017-05-16T02:58:26.946Z,93.79
2017-05-16T02:59:07.838Z,93.79
2017-05-16T02:59:48.728Z,93.6
2017-05-16T03:00:29.614Z,93.7
2017-05-16T03:01:10.509Z,93.7
2017-05-16T03:01:51.399Z,93.6
2017-05-16T03:02:32.293Z,93.88
2017-05-16T03:03:13.186Z,94.36
2017-05-16T03:03:54.085Z,94.7
2017-05-16T03:04:34.988Z,94.36
2017-05-16T03:05:15.868Z,94.84
2017-05-16T03:05:56.753Z,94.46
2017-05-16T03:06:37.639Z,94.55
2017-05-16T03:07:18.536Z,93.84
2017-05-16T03:07:59.428Z,93.45
2017-05-16T03:08:40.324Z,93.36
2017-05-16T03:09:21.219Z,93.36
2017-05-16T03:10:02.109Z,93.26
2017-05-16T03:10:43.004Z,93.16
2017-05-16T03:11:23.899Z,93.16
2017-05-16T03:12:04.789Z,93.16
2017-05-16T03:12:45.725Z,93.45
2017-05-16T03:13:26.634Z,92.97
2017-05-16T03:14:07.540Z,91.93
2017-05-16T03:14:48.452Z,92.02
2017-05-16T03:15:29.339Z,90.68
2017-05-16T03:16:10.214Z,90.3
2017-05-16T03:16:51.102Z,89.92
2017-05-16T03:17:31.991Z,89.06
2017-05-16T03:18:12.879Z,88.62
2017-05-16T03:18:53.767Z,88.91
2017-05-16T03:19:34.654Z,88.91
2017-05-16T03:20:15.548Z,88.34
2017-05-16T03:20:56.443Z,87.86
2017-05-16T03:21:37.330Z,88.24
2017-05-16T03:22:18.234Z,87.76
2017-05-16T03:22:59.128Z,88.43
2017-05-16T03:23:40.032Z,89.01
2017-05-16T03:24:20.924Z,88.81
2017-05-16T03:25:01.808Z,87.86
2017-05-16T03:25:42.701Z,87.76
2017-05-16T03:26:23.593Z,87.76
2017-05-16T03:27:04.486Z,87.48
2017-05-16T03:27:45.369Z,86.9
2017-05-16T03:28:26.261Z,86.9
2017-05-16T03:29:07.153Z,86.71
2017-05-16T03:29:48.046Z,86.9
2017-05-16T03:30:28.927Z,87
2017-05-16T03:31:09.817Z,86.9
2017-05-16T03:31:50.725Z,86.8
2017-05-16T03:32:31.613Z,86.61
2017-05-16T03:33:12.683Z,86.71
2017-05-16T03:33:53.513Z,86.61
2017-05-16T03:34:34.393Z,87
2017-05-16T03:35:15.280Z,86.52
2017-05-16T03:35:56.178Z,86.04
2017-05-16T03:36:37.070Z,86.61
2017-05-16T03:37:17.963Z,87.29
2017-05-16T03:37:58.873Z,87.19
2017-05-16T03:38:39.761Z,87
2017-05-16T03:39:20.672Z,86.52
2017-05-16T03:40:01.556Z,86.14
2017-05-16T03:40:42.448Z,86.43
2017-05-16T03:41:23.342Z,86.23
2017-05-16T03:42:04.222Z,85.85
2017-05-16T03:42:45.111Z,85.57
2017-05-16T03:43:26.020Z,85.57
2017-05-16T03:44:06.896Z,84.99
2017-05-16T03:44:47.789Z,85.13
2017-05-16T03:45:28.678Z,85.51
2017-05-16T03:46:09.563Z,86.52
2017-05-16T03:46:50.453Z,86.9
2017-05-16T03:47:31.342Z,87.48
2017-05-16T03:48:12.229Z,86.61
2017-05-16T03:48:53.119Z,86.71
2017-05-16T03:49:34.030Z,86.23
2017-05-16T03:50:14.917Z,86.23
2017-05-16T03:50:55.801Z,85.66
2017-05-16T03:51:36.701Z,87.09
2017-05-16T03:52:17.585Z,87.09
2017-05-16T03:52:58.472Z,88.43
2017-05-16T03:53:39.365Z,88.62
2017-05-16T03:54:20.260Z,88.81
2017-05-16T03:55:01.147Z,89.58
2017-05-16T03:55:42.032Z,89.39
2017-05-16T03:56:22.916Z,88.62
2017-05-16T03:57:03.824Z,87.95
2017-05-16T03:57:44.738Z,87.38
2017-05-16T03:58:25.663Z,87.29
2017-05-16T03:59:06.553Z,86.9
2017-05-16T03:59:47.439Z,87.09
2017-05-16T04:00:28.337Z,87.09
2017-05-16T04:01:09.226Z,87.29
2017-05-16T04:01:50.111Z,87.38
2017-05-16T04:02:30.996Z,87.95
2017-05-16T04:03:11.934Z,87.09
2017-05-16T04:03:52.783Z,87.38
2017-05-16T04:04:33.675Z,87.29
2017-05-16T04:05:14.550Z,87
2017-05-16T04:05:55.433Z,86.9
2017-05-16T04:06:36.318Z,87.09
2017-05-16T04:07:17.208Z,86.8
2017-05-16T04:07:58.100Z,86.43
2017-05-16T04:08:38.989Z,86.52
2017-05-16T04:09:19.877Z,86.9
2017-05-16T04:10:00.767Z,87.09
2017-05-16T04:10:41.701Z,86.71
2017-05-16T04:11:22.607Z,87
2017-05-16T04:12:03.484Z,87.48
2017-05-16T04:12:44.366Z,87.09
2017-05-16T04:13:25.256Z,87.38
2017-05-16T04:14:06.143Z,87.19
2017-05-16T04:14:47.591Z,87.38
2017-05-16T04:15:28.001Z,87.48
2017-05-16T04:16:08.897Z,86.71
2017-05-16T04:16:49.799Z,86.61
2017-05-16T04:17:30.705Z,86.9
2017-05-16T04:18:11.598Z,86.71
2017-05-16T04:18:52.508Z,86.8
2017-05-16T04:19:33.411Z,87.38
2017-05-16T04:20:14.295Z,88.05
2017-05-16T04:20:55.206Z,87.38
2017-05-16T04:21:36.087Z,87.38
2017-05-16T04:22:16.978Z,86.61
2017-05-16T04:22:57.876Z,86.9
2017-05-16T04:23:38.753Z,87.09
2017-05-16T04:24:19.653Z,87.09
2017-05-16T04:25:00.548Z,87.09
2017-05-16T04:25:41.436Z,86.61
2017-05-16T04:26:22.333Z,86.71
2017-05-16T04:27:03.249Z,86.61
2017-05-16T04:27:44.122Z,85.94
2017-05-16T04:28:25.024Z,86.52
2017-05-16T04:29:05.920Z,85.94
2017-05-16T04:29:46.815Z,86.33
2017-05-16T04:30:27.705Z,87
2017-05-16T04:31:08.620Z,87
2017-05-16T04:31:49.503Z,86.9
2017-05-16T04:32:30.379Z,87.29
2017-05-16T04:33:11.262Z,87.09
2017-05-16T04:33:52.148Z,87.09
2017-05-16T04:34:33.062Z,86.61
2017-05-16T04:35:13.925Z,86.9
2017-05-16T04:35:54.807Z,87.43
2017-05-16T04:36:35.701Z,87.72
2017-05-16T04:37:16.585Z,88.1
2017-05-16T04:37:57.478Z,87.48
2017-05-16T04:38:38.366Z,87.91
2017-05-16T04:39:19.261Z,87.91
2017-05-16T04:40:00.155Z,87.95
2017-05-16T04:40:41.042Z,87.91
2017-05-16T04:41:21.922Z,87.82
2017-05-16T04:42:02.814Z,87.72
2017-05-16T04:42:43.699Z,88.77
2017-05-16T04:43:24.606Z,88.39
2017-05-16T04:44:05.502Z,87.95
2017-05-16T04:46:04.016Z,88.77
2017-05-16T04:46:44.897Z,88.77
2017-05-16T04:47:25.829Z,88.39
2017-05-16T04:48:06.718Z,88.77
2017-05-16T04:48:47.655Z,88.77
2017-05-16T04:49:28.537Z,88.2
2017-05-16T04:50:09.441Z,88.39
2017-05-16T04:50:50.308Z,88.01
2017-05-16T04:51:31.191Z,88.39
2017-05-16T04:52:12.073Z,88.01
2017-05-16T04:52:52.957Z,88.34
2017-05-16T04:53:33.845Z,87.48
2017-05-16T04:54:14.746Z,87.48
2017-05-16T04:54:55.633Z,87.19
2017-05-16T04:55:36.520Z,87.48
2017-05-16T04:56:17.402Z,87.38
2017-05-16T04:56:58.277Z,87.57
2017-05-16T04:57:39.168Z,87.29
2017-05-16T04:58:20.070Z,86.71
2017-05-16T04:59:00.946Z,87.09
2017-05-16T04:59:41.836Z,87.38
2017-05-16T05:00:22.730Z,88.05
2017-05-16T05:01:03.618Z,87
2017-05-16T05:01:44.601Z,86.52
2017-05-16T05:02:25.479Z,86.23
2017-05-16T05:03:06.367Z,85.94
2017-05-16T05:03:47.265Z,85.57
2017-05-16T05:04:28.167Z,85.85
2017-05-16T05:05:09.112Z,85.94
2017-05-16T05:05:49.977Z,85.85
2017-05-16T05:06:30.874Z,85.71
2017-05-16T05:07:11.747Z,86.18
2017-05-16T05:07:52.643Z,85.89
2017-05-16T05:08:33.524Z,85.99
2017-05-16T05:09:14.470Z,85.99
2017-05-16T05:09:55.369Z,86.08
2017-05-16T05:10:36.235Z,85.99
2017-05-16T05:11:17.117Z,85.99
2017-05-16T05:11:58.020Z,86.08
2017-05-16T05:12:38.909Z,85.61
2017-05-16T05:13:19.867Z,85.32
2017-05-16T05:14:00.706Z,84.75
2017-05-16T05:14:41.607Z,84.55
2017-05-16T05:15:22.503Z,84.46
2017-05-16T05:16:03.398Z,84.41
2017-05-16T05:16:44.288Z,83.64
2017-05-16T05:17:25.175Z,83.64
2017-05-16T05:18:06.067Z,83.36
2017-05-16T05:18:46.960Z,83.64
2017-05-16T05:19:27.851Z,83.54
2017-05-16T05:20:08.747Z,83.06
2017-05-16T05:20:49.639Z,82.97
2017-05-16T05:21:30.523Z,82.97
2017-05-16T05:22:11.426Z,82.3
2017-05-16T05:22:52.312Z,82.68
2017-05-16T05:23:33.204Z,82.11
2017-05-16T05:24:14.108Z,82.4
2017-05-16T05:24:54.994Z,82.4
2017-05-16T05:25:35.885Z,82.63
2017-05-16T05:26:16.772Z,82.34
2017-05-16T05:26:57.666Z,82.24
2017-05-16T05:27:38.571Z,82.43
2017-05-16T05:28:19.447Z,82.97
2017-05-16T05:29:00.344Z,82.87
2017-05-16T05:29:41.244Z,82.92
2017-05-16T05:30:22.139Z,82.73
2017-05-16T05:31:03.097Z,82.34
2017-05-16T05:31:44.105Z,82.34
2017-05-16T05:32:25.056Z,82.43
2017-05-16T05:33:05.971Z,81.67
2017-05-16T05:33:46.884Z,81.13
2017-05-16T05:34:27.765Z,81.33
2017-05-16T05:35:08.645Z,80.66
2017-05-16T05:35:49.536Z,80.27
2017-05-16T05:36:30.418Z,80.27
2017-05-16T05:37:11.317Z,80.27
2017-05-16T05:37:52.750Z,79.89
2017-05-16T05:38:33.629Z,79.6
2017-05-16T05:39:14.553Z,79.89
2017-05-16T05:39:55.480Z,79.51
2017-05-16T05:40:36.373Z,79.51
2017-05-16T05:41:17.275Z,79.6
2017-05-16T05:41:58.174Z,79.41
2017-05-16T05:42:39.067Z,79.32
2017-05-16T05:43:19.948Z,79.41
2017-05-16T05:44:00.829Z,79.41
2017-05-16T05:44:41.787Z,79.99
2017-05-16T05:45:22.710Z,79.8
2017-05-16T05:46:03.614Z,79.7
2017-05-16T05:46:44.519Z,79.64
2017-05-16T05:47:25.411Z,79.45
2017-05-16T05:48:06.312Z,78.59
2017-05-16T05:48:47.195Z,78.59
2017-05-16T05:49:28.083Z,77.82
2017-05-16T05:50:08.962Z,77.95
2017-05-16T05:50:49.861Z,78.25
2017-05-16T05:51:30.805Z,77.58
2017-05-16T05:52:11.693Z,77.67
2017-05-16T05:52:52.599Z,77
2017-05-16T05:53:33.541Z,76.56
2017-05-16T05:54:14.448Z,75.7
2017-05-16T05:54:55.357Z,75.89
2017-05-16T05:55:36.242Z,75.12
2017-05-16T05:56:17.174Z,75.12
2017-05-16T05:56:58.119Z,75.6
2017-05-16T05:57:39.078Z,75.5
2017-05-16T05:58:20.018Z,75.31
2017-05-16T05:59:00.933Z,75.02
2017-05-16T05:59:41.805Z,74.73
2017-05-16T06:00:22.696Z,75.02
2017-05-16T06:01:03.588Z,75.12
2017-05-16T06:01:44.509Z,75.21
2017-05-16T06:03:38.132Z,74.83
2017-05-16T06:04:19.031Z,75.02
2017-05-16T06:04:59.906Z,74.64
2017-05-16T06:05:40.787Z,74.83
2017-05-16T06:06:21.668Z,74.64
2017-05-16T06:07:02.557Z,74.93
2017-05-16T06:07:43.469Z,74.83
2017-05-16T06:08:24.369Z,74.64
2017-05-16T06:09:05.271Z,74.35
2017-05-16T06:09:46.170Z,74.26
2017-05-16T06:10:27.056Z,73.77
2017-05-16T06:11:07.951Z,74.35
2017-05-16T06:11:48.860Z,74.16
2017-05-16T06:12:29.779Z,74.01
2017-05-16T06:13:10.666Z,73.52
2017-05-16T06:13:51.570Z,73.68
2017-05-16T06:14:32.458Z,73.62
2017-05-16T06:15:13.358Z,73.87
2017-05-16T06:15:54.246Z,74.35
2017-05-16T06:16:35.126Z,73.87
2017-05-16T06:17:16.035Z,73.81
2017-05-16T06:17:56.930Z,72.75
2017-05-16T06:18:37.863Z,72.66
2017-05-16T06:19:18.753Z,71.41
2017-05-16T06:19:59.699Z,71.25
2017-05-16T06:20:40.587Z,71.12
2017-05-16T06:21:21.488Z,71.31
2017-05-16T06:22:02.430Z,71.25
2017-05-16T06:22:43.277Z,71.35
2017-05-16T06:23:24.181Z,70.26
2017-05-16T06:24:05.083Z,71.12
2017-05-16T06:24:45.952Z,71.55
2017-05-16T06:25:26.851Z,70.97
2017-05-16T06:26:07.751Z,69.85
2017-05-16T06:26:48.643Z,68.7
2017-05-16T06:27:29.549Z,68.6
2017-05-16T06:28:10.447Z,67.54
2017-05-16T06:28:51.402Z,67.38
2017-05-16T06:29:32.324Z,66.52
2017-05-16T06:30:13.217Z,66.61
2017-05-16T06:30:54.125Z,66.23
2017-05-16T06:31:35.040Z,66.58
2017-05-16T06:32:15.941Z,66.61
2017-05-16T06:32:56.841Z,65.94
2017-05-16T06:33:37.726Z,64.63
2017-05-16T06:35:32.350Z,62.9
2017-05-16T06:36:13.254Z,62.8
2017-05-16T06:36:54.156Z,63.38
2017-05-16T06:37:35.042Z,63.45
2017-05-16T06:38:15.949Z,63.83
2017-05-16T06:38:56.860Z,64.02
2017-05-16T06:39:37.755Z,63.83
2017-05-16T06:40:18.646Z,63.57
2017-05-16T06:40:59.561Z,63.09
2017-05-16T06:41:40.471Z,62.9
2017-05-16T06:42:21.390Z,62.8
2017-05-16T06:43:02.290Z,62.23
2017-05-16T06:43:43.184Z,61.94
2017-05-16T06:44:24.226Z,62.32
2017-05-16T06:45:05.071Z,60.88
2017-05-16T06:45:45.971Z,61.65
2017-05-16T06:46:26.876Z,62.23
2017-05-16T06:47:07.762Z,62.48
2017-05-16T06:47:48.677Z,62.48
2017-05-16T06:48:29.580Z,62.99
2017-05-16T06:49:10.461Z,60.3
2017-05-16T06:49:51.344Z,60.59
2017-05-16T06:50:32.284Z,61.16
2017-05-16T06:51:13.140Z,61.61
2017-05-16T06:51:54.022Z,61.94
2017-05-16T06:52:34.912Z,61.26
2017-05-16T06:53:15.811Z,61.36
2017-05-16T06:53:56.694Z,61.23
2017-05-16T06:55:55.585Z,61.84
2017-05-16T06:56:36.474Z,61.58
2017-05-16T06:57:17.374Z,61
2017-05-16T06:57:58.255Z,61
2017-05-16T06:58:39.154Z,61.36
2017-05-16T06:59:20.052Z,61.81
2017-05-16T07:00:00.938Z,62.32
2017-05-16T07:00:41.834Z,62.13
2017-05-16T07:01:22.738Z,62.32
2017-05-16T07:02:03.629Z,61.74
2017-05-16T07:02:44.542Z,62.03
2017-05-16T07:03:25.439Z,62.32
2017-05-16T07:04:06.351Z,61.94
2017-05-16T07:04:47.226Z,61.55
2017-05-16T07:05:28.128Z,61.94
2017-05-16T07:06:09.027Z,61.16
2017-05-16T07:06:49.961Z,61.16
2017-05-16T07:07:30.848Z,61.26
2017-05-16T07:08:11.739Z,61.74
2017-05-16T07:08:52.651Z,61.74
2017-05-16T07:09:33.538Z,62.03
2017-05-16T07:10:14.464Z,61.36
2017-05-16T07:10:55.352Z,60.78
2017-05-16T07:11:36.235Z,59.82
2017-05-16T07:12:17.142Z,59.82
2017-05-16T07:12:58.026Z,60.21
2017-05-16T07:13:38.921Z,59.63
2017-05-16T07:14:19.834Z,59.53
2017-05-16T07:15:00.727Z,60.11
2017-05-16T07:15:41.640Z,60.27
2017-05-16T07:16:22.539Z,60.69
2017-05-16T07:17:03.427Z,60.78
2017-05-16T07:17:44.319Z,59.63
2017-05-16T07:18:25.210Z,57.64
2017-05-16T07:19:06.108Z,55.88
2017-05-16T07:19:47.022Z,56.36
2017-05-16T07:20:27.919Z,56.48
2017-05-16T07:21:08.825Z,55.98
2017-05-16T07:21:49.718Z,56.45
2017-05-16T07:22:30.623Z,56.65
2017-05-16T07:23:11.516Z,57.22
2017-05-16T07:23:52.433Z,57.22
2017-05-16T07:24:33.317Z,57.42
2017-05-16T07:25:14.205Z,57.15
2017-05-16T07:25:55.124Z,57.83
2017-05-16T07:26:35.989Z,57.45
2017-05-16T07:27:16.869Z,55.9
2017-05-16T07:27:57.789Z,56.58
2017-05-16T07:28:38.681Z,56
2017-05-16T07:29:19.564Z,56
2017-05-16T07:30:00.465Z,56.58
2017-05-16T07:30:41.365Z,56.38
2017-05-16T07:31:22.254Z,54.87
2017-05-16T07:32:03.147Z,54.65
2017-05-16T07:32:44.049Z,54.68
2017-05-16T07:33:24.963Z,55.13
2017-05-16T07:34:05.839Z,54.87
2017-05-16T07:34:46.734Z,54.39
2017-05-16T07:35:27.659Z,53.91
2017-05-16T07:36:08.548Z,54.39
2017-05-16T07:36:49.441Z,53.62
2017-05-16T07:37:30.331Z,54.97
2017-05-16T07:38:11.214Z,54.87
2017-05-16T07:38:52.115Z,54.39
2017-05-16T07:39:33.013Z,53.94
2017-05-16T07:40:13.903Z,53.27
2017-05-16T07:40:54.811Z,53.27
2017-05-16T07:41:35.689Z,52.4
2017-05-16T07:42:16.586Z,54.42
2017-05-16T07:42:57.487Z,54.06
2017-05-16T07:43:38.385Z,53.94
2017-05-16T07:44:19.290Z,52.42
2017-05-16T07:45:00.178Z,50.47
2017-05-16T07:45:41.073Z,50.98
2017-05-16T07:46:21.974Z,50.49
2017-05-16T07:47:02.865Z,51.43
2017-05-16T07:47:43.798Z,51.43
2017-05-16T07:48:24.655Z,50.57
2017-05-16T07:49:05.558Z,50.21
2017-05-16T07:49:46.470Z,50.49
2017-05-16T07:50:27.381Z,49.94
2017-05-16T07:51:08.285Z,49.75
2017-05-16T07:51:49.180Z,50.78
2017-05-16T07:52:30.089Z,50.64
2017-05-16T07:53:10.988Z,50.64
2017-05-16T07:53:51.894Z,49.65
2017-05-16T07:54:32.815Z,51.2
2017-05-16T07:55:13.685Z,48.81
2017-05-16T07:55:54.670Z,49.1
2017-05-16T07:56:35.485Z,48.64
2017-05-16T07:57:16.388Z,48.06
2017-05-16T07:57:57.287Z,48.25
2017-05-16T07:58:38.194Z,48.28
2017-05-16T07:59:19.104Z,47.99
2017-05-16T07:59:59.999Z,48.06
2017-05-16T08:00:40.903Z,49.7
2017-05-16T08:01:21.814Z,47.6
2017-05-16T08:02:02.682Z,47.81
2017-05-16T08:02:43.592Z,48.64
2017-05-16T08:03:24.494Z,46.64
2017-05-16T08:04:05.392Z,46.54
2017-05-16T08:04:46.298Z,49.32
2017-05-16T08:05:27.210Z,47.31
2017-05-16T08:06:08.109Z,47.24
2017-05-16T08:06:49.010Z,45.89
2017-05-16T08:07:29.925Z,46.47
2017-05-16T08:08:10.837Z,46.39
2017-05-16T08:08:51.743Z,44.65
2017-05-16T08:09:32.652Z,45.01
2017-05-16T08:10:13.557Z,45.69
2017-05-16T08:10:54.471Z,45.79
2017-05-16T08:11:35.369Z,45.89
2017-05-16T08:12:16.271Z,45.79
2017-05-16T08:12:57.173Z,45.79
2017-05-16T08:13:38.075Z,46.17
2017-05-16T08:14:18.967Z,45.21
2017-05-16T08:14:59.895Z,45.62
2017-05-16T08:15:40.798Z,46.17
2017-05-16T08:16:21.714Z,45.81
2017-05-16T08:17:02.611Z,45.83
2017-05-16T08:17:43.502Z,44.57
2017-05-16T08:18:24.426Z,43.9
2017-05-16T08:19:05.340Z,43.41
2017-05-16T08:19:46.241Z,43.03
2017-05-16T08:20:27.144Z,43.9
2017-05-16T08:21:08.024Z,43.82
2017-05-16T08:21:48.942Z,44.67
2017-05-16T08:22:29.844Z,44.53
2017-05-16T08:23:10.747Z,46.17
2017-05-16T08:23:51.643Z,45.96
2017-05-16T08:24:32.570Z,46.03
2017-05-16T08:25:13.456Z,46.92
2017-05-16T08:25:54.396Z,46.17
2017-05-16T08:26:35.341Z,45.59
2017-05-16T08:27:16.203Z,46.08
2017-05-16T08:27:57.105Z,45.69
2017-05-16T08:28:38.006Z,47.89
2017-05-16T08:29:18.905Z,47.14
2017-05-16T08:29:59.813Z,46.44
2017-05-16T08:30:40.716Z,47.12
2017-05-16T08:31:21.605Z,47.5
2017-05-16T08:32:02.499Z,47.5
2017-05-16T08:32:43.401Z,47.67
2017-05-16T08:33:24.305Z,47.67
2017-05-16T08:34:05.204Z,47.67
2017-05-16T08:34:46.104Z,47.99
2017-05-16T08:35:27.009Z,49.02
2017-05-16T08:36:07.904Z,48.9
2017-05-16T08:36:48.808Z,48.64
2017-05-16T08:37:29.714Z,49.51
2017-05-16T08:38:10.595Z,49.87
2017-05-16T08:38:51.503Z,50.98
2017-05-16T08:39:32.392Z,51.12
2017-05-16T08:40:13.295Z,50.09
2017-05-16T08:40:54.203Z,49.15
2017-05-16T08:41:35.105Z,47.53
2017-05-16T08:42:16.003Z,46.66
2017-05-16T08:42:56.907Z,45.72
2017-05-16T08:43:37.799Z,45.23
2017-05-16T08:44:18.701Z,44.84
2017-05-16T08:44:59.599Z,44.87
2017-05-16T08:45:40.505Z,45.35
2017-05-16T08:46:21.405Z,45.06
2017-05-16T08:47:02.314Z,45.14
2017-05-16T08:47:43.212Z,46.39
2017-05-16T08:48:24.099Z,46.42
2017-05-16T08:49:05.010Z,44.67
2017-05-16T08:49:45.888Z,44.48
2017-05-16T08:50:26.784Z,44.4
2017-05-16T08:51:07.694Z,43.71
2017-05-16T08:51:48.575Z,43.99
2017-05-16T08:52:29.492Z,44.57
2017-05-16T08:53:10.376Z,44.67
2017-05-16T08:53:51.288Z,45.35
2017-05-16T08:54:32.182Z,44.48
2017-05-16T08:55:13.082Z,44.38
2017-05-16T08:55:53.985Z,44.96